Flight Track Log - Related Links

Times and Time Zones

All times are in EDT time to prevent confusion due to time zone crossing. See the CES5388 flight status page for this flight to view local times or setup timezone preferences in your user account.

Time Position Orientation Groundspeed Altitude Reporting Facility
EDT Latitude Longitude Course Direction KTS MPH feet Rate Location/Type
Wed 01:40:00 PM 25.7250 110.5559 43° Northeast  Level Estimated
Wed 01:41:00 PM 25.7973 110.6300 43° Northeast  Level Estimated
Wed 01:42:00 PM 25.8695 110.7043 43° Northeast  Level Estimated
Wed 01:43:00 PM 25.9417 110.7786 43° Northeast  Level Estimated
Wed 01:44:00 PM 26.0138 110.8531 43° Northeast  Level Estimated
Wed 01:45:00 PM 26.0859 110.9276 43° Northeast  Level Estimated
Wed 01:46:00 PM 26.1580 111.0022 43° Northeast  Level Estimated
Wed 01:47:00 PM 26.2300 111.0770 43° Northeast  Level Estimated
Wed 01:48:00 PM 26.3020 111.1518 43° Northeast  Level Estimated
Wed 01:49:00 PM 26.3740 111.2267 43° Northeast  Level Estimated
Wed 01:50:00 PM 26.4459 111.3017 43° Northeast  Level Estimated
Wed 01:51:00 PM 26.5178 111.3767 43° Northeast  Level Estimated
Wed 01:52:00 PM 26.5896 111.4519 43° Northeast  Level Estimated
Wed 01:53:00 PM 26.6614 111.5272 43° Northeast  Level Estimated
Wed 01:54:00 PM 26.7332 111.6026 43° Northeast  Level Estimated
Wed 01:55:00 PM 26.8049 111.6780 43° Northeast  Level Estimated
Wed 01:56:00 PM 26.8766 111.7536 43° Northeast  Level Estimated
Wed 01:57:00 PM 26.9482 111.8293 43° Northeast  Level Estimated
Wed 01:58:00 PM 27.0198 111.9050 43° Northeast  Level Estimated
Wed 01:59:00 PM 27.0914 111.9809 43° Northeast  Level Estimated
Wed 02:00:00 PM 27.1629 112.0568 43° Northeast  Level Estimated
Wed 02:01:00 PM 27.2344 112.1329 43° Northeast  Level Estimated
Wed 02:02:00 PM 27.3058 112.2090 43° Northeast  Level Estimated
Wed 02:03:00 PM 27.3772 112.2852 43° Northeast  Level Estimated
Wed 02:04:00 PM 27.4486 112.3616 44° Northeast  Level Estimated
Wed 02:05:00 PM 27.5199 112.4380 44° Northeast  Level Estimated
Wed 02:06:00 PM 27.5912 112.5145 44° Northeast  Level Estimated
Wed 02:07:00 PM 27.6624 112.5912 44° Northeast  Level Estimated
Wed 02:08:00 PM 27.7336 112.6679 44° Northeast  Level Estimated
Wed 02:09:00 PM 27.8047 112.7448 44° Northeast  Level Estimated
Wed 02:10:00 PM 27.8758 112.8217 44° Northeast  Level Estimated
Wed 02:11:00 PM 27.9469 112.8988 44° Northeast  Level Estimated
Wed 02:12:00 PM 28.0179 112.9759 44° Northeast  Level Estimated
Wed 02:13:00 PM 28.0889 113.0531 44° Northeast  Level Estimated
Wed 02:14:00 PM 28.1598 113.1305 44° Northeast  Level Estimated
Wed 02:15:00 PM 28.2307 113.2079 44° Northeast  Level Estimated
Wed 02:16:00 PM 28.3015 113.2855 44° Northeast  Level Estimated
Wed 02:17:00 PM 28.3723 113.3631 44° Northeast  Level Estimated
Wed 02:18:00 PM 28.4431 113.4409 44° Northeast  Level Estimated
Wed 02:19:00 PM 28.5138 113.5187 44° Northeast  Level Estimated
Wed 02:20:00 PM 28.5844 113.5967 44° Northeast  Level Estimated
Wed 02:21:00 PM 28.6550 113.6748 44° Northeast  Level Estimated
Wed 02:22:00 PM 28.7256 113.7529 44° Northeast  Level Estimated
Wed 02:23:00 PM 28.7962 113.8312 44° Northeast  Level Estimated
Wed 02:24:00 PM 28.8666 113.9096 44° Northeast  Level Estimated
Wed 02:25:00 PM 28.9371 113.9881 44° Northeast  Level Estimated
Wed 02:26:00 PM 29.0075 114.0667 44° Northeast  Level Estimated
Wed 02:27:00 PM 29.0778 114.1454 44° Northeast  Level Estimated
Wed 02:28:00 PM 29.1481 114.2242 44° Northeast  Level Estimated
Wed 02:29:00 PM 29.2184 114.3031 44° Northeast  Level Estimated
Wed 02:30:00 PM 29.2886 114.3822 44° Northeast  Level Estimated
Wed 02:31:00 PM 29.3587 114.4613 45° Northeast  Level Estimated
Wed 02:32:00 PM 29.4289 114.5406 45° Northeast  Level Estimated
Wed 02:33:00 PM 29.4989 114.6199 45° Northeast  Level Estimated
Wed 02:34:00 PM 29.5690 114.6994 45° Northeast  Level Estimated
Wed 02:35:00 PM 29.6389 114.7790 45° Northeast  Level Estimated
Wed 02:36:00 PM 29.7089 114.8587 45° Northeast  Level Estimated
Wed 02:37:00 PM 29.7787 114.9385 45° Northeast  Level Estimated
Wed 02:38:00 PM 29.8486 115.0184 45° Northeast  Level Estimated
Wed 02:39:00 PM 29.9183 115.0984 45° Northeast  Level Estimated
Wed 02:40:00 PM 29.9881 115.1785 45° Northeast  Level Estimated
Wed 02:41:00 PM 30.0578 115.2588 45° Northeast  Level Estimated
Wed 02:42:00 PM 30.1274 115.3391 45° Northeast  Level Estimated
Wed 02:43:00 PM 30.1970 115.4196 45° Northeast  Level Estimated
Wed 02:44:00 PM 30.2665 115.5002 45° Northeast  Level Estimated
Wed 02:45:00 PM 30.3360 115.5809 45° Northeast  Level Estimated
Wed 02:46:00 PM 30.4055 115.6617 45° Northeast  Level Estimated
Wed 02:47:00 PM 30.4749 115.7426 45° Northeast  Level Estimated
Wed 02:48:00 PM 30.5442 115.8237 45° Northeast  Level Estimated
Wed 02:49:00 PM 30.6135 115.9048 45° Northeast  Level Estimated
Wed 02:50:00 PM 30.6827 115.9861 45° Northeast  Level Estimated
Wed 02:51:00 PM 30.7519 116.0675 45° Northeast  Level Estimated
Wed 02:52:00 PM 30.8211 116.1490 45° Northeast  Level Estimated
Wed 02:53:00 PM 30.9079 116.2516 45° Northeast  Level Estimated
Wed 02:54:00 PM 30.9946 116.3544 45° Northeast  Level Estimated
Wed 02:55:00 PM 31.0813 116.4574 45° Northeast  Level Estimated
Wed 02:56:00 PM 31.1678 116.5606 46° Northeast  Level Estimated
Wed 02:57:00 PM 31.2543 116.6639 46° Northeast  Level Estimated
Wed 02:58:00 PM 31.3407 116.7675 46° Northeast  Level Estimated
Wed 02:59:00 PM 31.4271 116.8712 46° Northeast  Level Estimated
Wed 03:00:00 PM 31.5133 116.9752 46° Northeast  Level Estimated
Wed 03:01:00 PM 31.5995 117.0793 46° Northeast  Level Estimated
Wed 03:02:00 PM 31.6855 117.1836 46° Northeast  Level Estimated
Wed 03:03:00 PM 31.7715 117.2881 46° Northeast  Level Estimated

Login

Don't have an account? Register now (free) for customized features, flight alerts, and more!